sensor_id;sensor_type;location;lat;lon;timestamp;pressure;altitude;pressure_sealevel;temperature;humidity
9521;BME280;4798;41.574;23.734;2023-05-11T00:00:13;95562.94;;;14.02;85.97
9521;BME280;4798;41.574;23.734;2023-05-11T00:02:43;95569.91;;;14.22;86.81
9521;BME280;4798;41.574;23.734;2023-05-11T00:05:13;95567.03;;;14.42;85.98
9521;BME280;4798;41.574;23.734;2023-05-11T00:07:41;95562.03;;;14.35;85.51
9521;BME280;4798;41.574;23.734;2023-05-11T00:10:10;95547.28;;;14.19;85.98
9521;BME280;4798;41.574;23.734;2023-05-11T00:12:38;95563.00;;;14.21;86.80
9521;BME280;4798;41.574;23.734;2023-05-11T00:15:07;95568.16;;;14.12;87.82
9521;BME280;4798;41.574;23.734;2023-05-11T00:17:35;95571.84;;;14.16;88.53
9521;BME280;4798;41.574;23.734;2023-05-11T00:20:05;95557.78;;;14.34;86.91
9521;BME280;4798;41.574;23.734;2023-05-11T00:22:35;95560.03;;;14.46;86.16
9521;BME280;4798;41.574;23.734;2023-05-11T00:25:04;95563.69;;;14.50;85.87
9521;BME280;4798;41.574;23.734;2023-05-11T00:27:32;95546.38;;;14.29;86.38
9521;BME280;4798;41.574;23.734;2023-05-11T00:30:00;95566.22;;;14.18;88.98
9521;BME280;4798;41.574;23.734;2023-05-11T00:32:29;95561.34;;;14.25;89.16
9521;BME280;4798;41.574;23.734;2023-05-11T00:34:58;95559.72;;;14.47;88.34
9521;BME280;4798;41.574;23.734;2023-05-11T00:37:26;95554.13;;;14.49;87.70
9521;BME280;4798;41.574;23.734;2023-05-11T00:39:55;95552.16;;;14.36;88.29
9521;BME280;4798;41.574;23.734;2023-05-11T00:42:24;95569.16;;;14.40;88.64
9521;BME280;4798;41.574;23.734;2023-05-11T00:44:52;95566.28;;;14.55;88.10
9521;BME280;4798;41.574;23.734;2023-05-11T00:47:20;95552.25;;;14.49;87.88
9521;BME280;4798;41.574;23.734;2023-05-11T00:49:49;95570.13;;;14.49;88.90
9521;BME280;4798;41.574;23.734;2023-05-11T00:52:20;95560.75;;;14.51;89.25
9521;BME280;4798;41.574;23.734;2023-05-11T00:54:49;95575.25;;;14.64;88.79
9521;BME280;4798;41.574;23.734;2023-05-11T00:57:19;95568.31;;;14.63;89.26
9521;BME280;4798;41.574;23.734;2023-05-11T00:59:48;95569.69;;;14.60;90.58
9521;BME280;4798;41.574;23.734;2023-05-11T01:02:17;95566.91;;;14.52;90.89
9521;BME280;4798;41.574;23.734;2023-05-11T01:04:45;95567.03;;;14.42;90.56
9521;BME280;4798;41.574;23.734;2023-05-11T01:07:19;95563.56;;;14.41;86.37
9521;BME280;4798;41.574;23.734;2023-05-11T01:09:59;95556.97;;;14.10;88.87
9521;BME280;4798;41.574;23.734;2023-05-11T01:12:37;95563.75;;;14.02;89.49
9521;BME280;4798;41.574;23.734;2023-05-11T01:15:09;95552.06;;;13.98;90.40
9521;BME280;4798;41.574;23.734;2023-05-11T01:17:44;95565.22;;;14.14;91.20
9521;BME280;4798;41.574;23.734;2023-05-11T01:20:16;95562.63;;;14.09;92.28
9521;BME280;4798;41.574;23.734;2023-05-11T01:23:06;95556.78;;;14.25;91.47
9521;BME280;4798;41.574;23.734;2023-05-11T01:25:55;95562.81;;;14.36;91.21
9521;BME280;4798;41.574;23.734;2023-05-11T01:28:48;95565.22;;;14.56;88.77
9521;BME280;4798;41.574;23.734;2023-05-11T01:31:22;95534.38;;;13.84;90.70
9521;BME280;4798;41.574;23.734;2023-05-11T01:33:54;95562.63;;;14.09;91.73
9521;BME280;4798;41.574;23.734;2023-05-11T01:36:28;95562.25;;;13.91;91.48
9521;BME280;4798;41.574;23.734;2023-05-11T01:39:00;95568.38;;;13.92;91.48
9521;BME280;4798;41.574;23.734;2023-05-11T01:41:31;95566.84;;;14.10;90.44
9521;BME280;4798;41.574;23.734;2023-05-11T01:44:04;95561.06;;;14.26;89.94
9521;BME280;4798;41.574;23.734;2023-05-11T01:46:34;95559.47;;;14.25;89.86
9521;BME280;4798;41.574;23.734;2023-05-11T01:49:06;95556.59;;;14.22;90.20
9521;BME280;4798;41.574;23.734;2023-05-11T01:51:36;95559.03;;;14.18;90.57
9521;BME280;4798;41.574;23.734;2023-05-11T01:54:06;95554.19;;;14.20;89.85
9521;BME280;4798;41.574;23.734;2023-05-11T01:56:37;95546.31;;;14.34;88.96
9521;BME280;4798;41.574;23.734;2023-05-11T01:59:07;95547.25;;;14.43;88.34
9521;BME280;4798;41.574;23.734;2023-05-11T02:01:39;95542.88;;;14.52;89.43
9521;BME280;4798;41.574;23.734;2023-05-11T02:04:08;95544.31;;;14.63;90.04
9521;BME280;4798;41.574;23.734;2023-05-11T02:06:38;95545.13;;;14.63;92.82
9521;BME280;4798;41.574;23.734;2023-05-11T02:09:09;95534.50;;;14.58;94.18
9521;BME280;4798;41.574;23.734;2023-05-11T02:11:39;95526.81;;;14.57;94.46
9521;BME280;4798;41.574;23.734;2023-05-11T02:14:10;95262.84;;;12.89;95.69
9521;BME280;4798;41.574;23.734;2023-05-11T02:16:41;95521.69;;;14.42;97.75
9521;BME280;4798;41.574;23.734;2023-05-11T02:19:11;95540.03;;;13.77;100.00
9521;BME280;4798;41.574;23.734;2023-05-11T02:21:41;95527.44;;;13.35;100.00
9521;BME280;4798;41.574;23.734;2023-05-11T02:24:11;95474.97;;;13.12;100.00
9521;BME280;4798;41.574;23.734;2023-05-11T02:26:39;95538.44;;;13.76;100.00
9521;BME280;4798;41.574;23.734;2023-05-11T02:29:07;95540.00;;;13.30;100.00
9521;BME280;4798;41.574;23.734;2023-05-11T02:31:41;95528.69;;;13.43;100.00
9521;BME280;4798;41.574;23.734;2023-05-11T02:34:14;95533.59;;;13.31;100.00
9521;BME280;4798;41.574;23.734;2023-05-11T02:36:47;95528.91;;;13.47;100.00
9521;BME280;4798;41.574;23.734;2023-05-11T02:39:19;95525.97;;;13.72;100.00
9521;BME280;4798;41.574;23.734;2023-05-11T02:41:54;95524.41;;;13.71;100.00
9521;BME280;4798;41.574;23.734;2023-05-11T02:44:26;95525.72;;;13.73;100.00
9521;BME280;4798;41.574;23.734;2023-05-11T02:46:58;95527.69;;;13.86;99.75
9521;BME280;4798;41.574;23.734;2023-05-11T02:49:30;95528.78;;;13.85;98.99
9521;BME280;4798;41.574;23.734;2023-05-11T02:52:00;95525.47;;;13.93;99.58
9521;BME280;4798;41.574;23.734;2023-05-11T02:54:30;95528.81;;;13.80;97.22
9521;BME280;4798;41.574;23.734;2023-05-11T02:57:00;95522.47;;;13.76;98.55
9521;BME280;4798;41.574;23.734;2023-05-11T02:59:29;95522.47;;;13.76;100.00
9521;BME280;4798;41.574;23.734;2023-05-11T03:01:59;95518.00;;;13.95;100.00
9521;BME280;4798;41.574;23.734;2023-05-11T03:04:28;95518.84;;;13.91;98.96
9521;BME280;4798;41.574;23.734;2023-05-11T03:06:56;95520.59;;;14.00;98.66
9521;BME280;4798;41.574;23.734;2023-05-11T03:09:25;95522.56;;;13.66;96.96
9521;BME280;4798;41.574;23.734;2023-05-11T03:11:53;95516.63;;;13.74;99.32
9521;BME280;4798;41.574;23.734;2023-05-11T03:14:22;95513.72;;;13.94;98.49
9521;BME280;4798;41.574;23.734;2023-05-11T03:16:51;95518.69;;;13.82;97.76
9521;BME280;4798;41.574;23.734;2023-05-11T03:19:22;95520.97;;;13.89;98.41
9521;BME280;4798;41.574;23.734;2023-05-11T03:21:51;95523.47;;;14.04;97.08
9521;BME280;4798;41.574;23.734;2023-05-11T03:24:20;95522.22;;;13.49;99.30
9521;BME280;4798;41.574;23.734;2023-05-11T03:26:49;95527.69;;;13.10;100.00
9521;BME280;4798;41.574;23.734;2023-05-11T03:29:18;95529.75;;;13.13;100.00
9521;BME280;4798;41.574;23.734;2023-05-11T03:31:47;95519.81;;;13.24;100.00
9521;BME280;4798;41.574;23.734;2023-05-11T03:34:17;95518.91;;;13.05;100.00
9521;BME280;4798;41.574;23.734;2023-05-11T03:36:47;95525.09;;;12.95;100.00
9521;BME280;4798;41.574;23.734;2023-05-11T03:39:16;95526.97;;;12.95;100.00
9521;BME280;4798;41.574;23.734;2023-05-11T03:41:48;95523.69;;;13.36;100.00
9521;BME280;4798;41.574;23.734;2023-05-11T03:44:17;95526.50;;;13.50;100.00
9521;BME280;4798;41.574;23.734;2023-05-11T03:46:47;95476.31;;;13.10;100.00
9521;BME280;4798;41.574;23.734;2023-05-11T03:49:16;95526.66;;;13.82;100.00
9521;BME280;4798;41.574;23.734;2023-05-11T03:51:47;95536.25;;;13.83;100.00
9521;BME280;4798;41.574;23.734;2023-05-11T03:54:16;95483.16;;;13.45;100.00
9521;BME280;4798;41.574;23.734;2023-05-11T03:56:44;95524.84;;;13.78;100.00
9521;BME280;4798;41.574;23.734;2023-05-11T03:59:14;95533.59;;;13.83;100.00
9521;BME280;4798;41.574;23.734;2023-05-11T04:01:43;95505.00;;;13.42;100.00
9521;BME280;4798;41.574;23.734;2023-05-11T04:04:11;95517.94;;;13.77;100.00
9521;BME280;4798;41.574;23.734;2023-05-11T04:06:40;95441.22;;;13.03;100.00
9521;BME280;4798;41.574;23.734;2023-05-11T04:09:09;95541.31;;;13.32;100.00
9521;BME280;4798;41.574;23.734;2023-05-11T04:11:38;95535.03;;;13.47;100.00
9521;BME280;4798;41.574;23.734;2023-05-11T04:14:06;95493.34;;;13.04;100.00
9521;BME280;4798;41.574;23.734;2023-05-11T04:16:34;95539.75;;;13.55;100.00
9521;BME280;4798;41.574;23.734;2023-05-11T04:19:03;95535.84;;;13.71;100.00
9521;BME280;4798;41.574;23.734;2023-05-11T04:21:32;95513.41;;;13.77;100.00
9521;BME280;4798;41.574;23.734;2023-05-11T04:24:01;95541.91;;;13.53;100.00
9521;BME280;4798;41.574;23.734;2023-05-11T04:26:30;95543.22;;;13.56;100.00
9521;BME280;4798;41.574;23.734;2023-05-11T04:28:59;95546.84;;;13.65;100.00
9521;BME280;4798;41.574;23.734;2023-05-11T04:31:27;95545.81;;;13.61;100.00
9521;BME280;4798;41.574;23.734;2023-05-11T04:33:56;95556.28;;;13.52;100.00
9521;BME280;4798;41.574;23.734;2023-05-11T04:36:25;95506.81;;;13.22;100.00
9521;BME280;4798;41.574;23.734;2023-05-11T04:38:53;95564.56;;;13.74;100.00
9521;BME280;4798;41.574;23.734;2023-05-11T04:41:21;95561.75;;;13.66;100.00
9521;BME280;4798;41.574;23.734;2023-05-11T04:43:51;95570.47;;;13.71;100.00
9521;BME280;4798;41.574;23.734;2023-05-11T04:46:19;95569.84;;;13.79;100.00
9521;BME280;4798;41.574;23.734;2023-05-11T04:48:48;95564.19;;;14.10;100.00
9521;BME280;4798;41.574;23.734;2023-05-11T04:51:17;95561.69;;;14.18;98.90
9521;BME280;4798;41.574;23.734;2023-05-11T04:53:45;95570.44;;;14.24;98.27
9521;BME280;4798;41.574;23.734;2023-05-11T04:56:13;95573.91;;;14.00;97.61
9521;BME280;4798;41.574;23.734;2023-05-11T04:58:42;95389.69;;;12.94;96.59
9521;BME280;4798;41.574;23.734;2023-05-11T05:01:12;95575.19;;;13.79;100.00
9521;BME280;4798;41.574;23.734;2023-05-11T05:03:40;95569.88;;;14.03;98.25
9521;BME280;4798;41.574;23.734;2023-05-11T05:06:08;95584.59;;;13.95;98.22
9521;BME280;4798;41.574;23.734;2023-05-11T05:08:37;95583.94;;;14.09;99.03
9521;BME280;4798;41.574;23.734;2023-05-11T05:11:05;95583.47;;;14.25;96.03
9521;BME280;4798;41.574;23.734;2023-05-11T05:13:33;95585.25;;;14.30;97.88
9521;BME280;4798;41.574;23.734;2023-05-11T05:16:02;95415.16;;;13.28;99.27
9521;BME280;4798;41.574;23.734;2023-05-11T05:18:32;95587.50;;;14.23;100.00
9521;BME280;4798;41.574;23.734;2023-05-11T05:21:00;95595.97;;;14.25;99.60
9521;BME280;4798;41.574;23.734;2023-05-11T05:23:28;95590.22;;;14.18;99.69
9521;BME280;4798;41.574;23.734;2023-05-11T05:25:57;95591.28;;;14.40;97.15
9521;BME280;4798;41.574;23.734;2023-05-11T05:28:25;95597.19;;;14.37;96.98
9521;BME280;4798;41.574;23.734;2023-05-11T05:30:55;95603.25;;;13.95;99.09
9521;BME280;4798;41.574;23.734;2023-05-11T05:33:25;95608.66;;;13.90;100.00
9521;BME280;4798;41.574;23.734;2023-05-11T05:35:54;95608.84;;;13.70;100.00
9521;BME280;4798;41.574;23.734;2023-05-11T05:38:23;95613.53;;;14.07;100.00
9521;BME280;4798;41.574;23.734;2023-05-11T05:40:51;95609.13;;;13.69;100.00
9521;BME280;4798;41.574;23.734;2023-05-11T05:43:20;95607.28;;;13.64;100.00
9521;BME280;4798;41.574;23.734;2023-05-11T05:45:48;95596.94;;;13.86;100.00
9521;BME280;4798;41.574;23.734;2023-05-11T05:48:16;95549.31;;;13.56;100.00
9521;BME280;4798;41.574;23.734;2023-05-11T05:50:45;95615.53;;;13.91;100.00
9521;BME280;4798;41.574;23.734;2023-05-11T05:53:15;95609.81;;;13.79;100.00
9521;BME280;4798;41.574;23.734;2023-05-11T05:55:43;95613.00;;;13.81;100.00
9521;BME280;4798;41.574;23.734;2023-05-11T05:58:11;95616.91;;;13.89;100.00
9521;BME280;4798;41.574;23.734;2023-05-11T06:00:40;95599.41;;;14.07;100.00
9521;BME280;4798;41.574;23.734;2023-05-11T06:03:08;95607.63;;;14.10;100.00
9521;BME280;4798;41.574;23.734;2023-05-11T06:05:37;95616.06;;;14.17;100.00
9521;BME280;4798;41.574;23.734;2023-05-11T06:08:05;95613.66;;;14.21;100.00
9521;BME280;4798;41.574;23.734;2023-05-11T06:10:38;95608.69;;;14.09;100.00
9521;BME280;4798;41.574;23.734;2023-05-11T06:13:07;95633.69;;;13.89;100.00
9521;BME280;4798;41.574;23.734;2023-05-11T06:15:35;95627.75;;;13.69;100.00
9521;BME280;4798;41.574;23.734;2023-05-11T06:18:05;95628.66;;;13.88;100.00
9521;BME280;4798;41.574;23.734;2023-05-11T06:20:33;95606.72;;;13.96;100.00
9521;BME280;4798;41.574;23.734;2023-05-11T06:23:02;95614.94;;;14.23;100.00
9521;BME280;4798;41.574;23.734;2023-05-11T06:25:32;95619.66;;;14.55;96.60
9521;BME280;4798;41.574;23.734;2023-05-11T06:28:02;95618.91;;;14.26;98.78
9521;BME280;4798;41.574;23.734;2023-05-11T06:30:30;95629.59;;;14.26;100.00
9521;BME280;4798;41.574;23.734;2023-05-11T06:32:59;95613.81;;;14.29;100.00
9521;BME280;4798;41.574;23.734;2023-05-11T06:35:27;95634.53;;;14.37;100.00
9521;BME280;4798;41.574;23.734;2023-05-11T06:37:56;95623.78;;;14.66;99.84
9521;BME280;4798;41.574;23.734;2023-05-11T06:40:25;95627.97;;;15.09;95.33
9521;BME280;4798;41.574;23.734;2023-05-11T06:42:53;95619.44;;;15.26;94.15
9521;BME280;4798;41.574;23.734;2023-05-11T06:45:23;95616.38;;;15.51;92.58
9521;BME280;4798;41.574;23.734;2023-05-11T06:47:51;95621.94;;;15.55;92.27
9521;BME280;4798;41.574;23.734;2023-05-11T06:50:20;95621.22;;;15.81;88.69
9521;BME280;4798;41.574;23.734;2023-05-11T06:52:52;95615.00;;;15.86;86.60
9521;BME280;4798;41.574;23.734;2023-05-11T06:55:21;95619.84;;;15.52;87.73
9521;BME280;4798;41.574;23.734;2023-05-11T06:57:49;95619.38;;;15.96;87.11
9521;BME280;4798;41.574;23.734;2023-05-11T07:00:18;95616.09;;;15.85;85.48
9521;BME280;4798;41.574;23.734;2023-05-11T07:02:48;95606.81;;;15.64;86.29
9521;BME280;4798;41.574;23.734;2023-05-11T07:05:17;95623.84;;;16.27;84.71
9521;BME280;4798;41.574;23.734;2023-05-11T07:07:45;95623.81;;;16.00;79.58
9521;BME280;4798;41.574;23.734;2023-05-11T07:10:13;95622.94;;;16.05;76.91
9521;BME280;4798;41.574;23.734;2023-05-11T07:12:42;95618.28;;;16.10;79.44
9521;BME280;4798;41.574;23.734;2023-05-11T07:15:10;95625.31;;;16.47;79.20
9521;BME280;4798;41.574;23.734;2023-05-11T07:17:39;95611.38;;;16.23;77.55
9521;BME280;4798;41.574;23.734;2023-05-11T07:20:10;95613.03;;;17.09;76.04
9521;BME280;4798;41.574;23.734;2023-05-11T07:22:38;95604.59;;;17.15;71.24
9521;BME280;4798;41.574;23.734;2023-05-11T07:25:07;95606.06;;;17.22;71.07
9521;BME280;4798;41.574;23.734;2023-05-11T07:27:36;95596.09;;;17.58;70.54
9521;BME280;4798;41.574;23.734;2023-05-11T07:30:06;95599.28;;;17.91;70.09
9521;BME280;4798;41.574;23.734;2023-05-11T07:32:34;95588.25;;;18.40;67.28
9521;BME280;4798;41.574;23.734;2023-05-11T07:35:05;95585.69;;;18.66;65.33
9521;BME280;4798;41.574;23.734;2023-05-11T07:37:35;95575.91;;;18.95;64.50
9521;BME280;4798;41.574;23.734;2023-05-11T07:40:04;95585.38;;;18.93;67.88
9521;BME280;4798;41.574;23.734;2023-05-11T07:42:32;95588.09;;;19.01;66.69
9521;BME280;4798;41.574;23.734;2023-05-11T07:45:01;95583.34;;;19.16;64.37
9521;BME280;4798;41.574;23.734;2023-05-11T07:47:29;95589.38;;;19.30;65.19
9521;BME280;4798;41.574;23.734;2023-05-11T07:50:01;95583.66;;;19.23;62.21
9521;BME280;4798;41.574;23.734;2023-05-11T07:52:29;95584.47;;;19.49;63.19
9521;BME280;4798;41.574;23.734;2023-05-11T07:54:59;95574.16;;;19.68;62.19
9521;BME280;4798;41.574;23.734;2023-05-11T07:57:27;95594.09;;;19.67;61.12
9521;BME280;4798;41.574;23.734;2023-05-11T07:59:55;95598.94;;;19.82;61.77
9521;BME280;4798;41.574;23.734;2023-05-11T08:02:24;95529.78;;;18.76;62.56
9521;BME280;4798;41.574;23.734;2023-05-11T08:04:52;95581.94;;;19.52;61.96
9521;BME280;4798;41.574;23.734;2023-05-11T08:07:20;95575.56;;;19.74;61.09
9521;BME280;4798;41.574;23.734;2023-05-11T08:09:49;95547.97;;;18.79;61.12
9521;BME280;4798;41.574;23.734;2023-05-11T08:12:18;95593.47;;;18.84;62.82
9521;BME280;4798;41.574;23.734;2023-05-11T08:14:47;95568.78;;;18.57;61.25
9521;BME280;4798;41.574;23.734;2023-05-11T08:17:15;95546.56;;;18.25;60.43
9521;BME280;4798;41.574;23.734;2023-05-11T08:19:44;95584.91;;;19.51;58.36
9521;BME280;4798;41.574;23.734;2023-05-11T08:22:12;95585.53;;;20.20;59.45
9521;BME280;4798;41.574;23.734;2023-05-11T08:24:41;95523.00;;;20.14;58.23
9521;BME280;4798;41.574;23.734;2023-05-11T08:27:09;95577.13;;;20.21;56.39
9521;BME280;4798;41.574;23.734;2023-05-11T08:29:39;95574.69;;;19.99;53.72
9521;BME280;4798;41.574;23.734;2023-05-11T08:32:07;95572.63;;;20.43;54.04
9521;BME280;4798;41.574;23.734;2023-05-11T08:34:36;95570.13;;;19.91;54.16
9521;BME280;4798;41.574;23.734;2023-05-11T08:37:04;95556.50;;;20.34;55.74
9521;BME280;4798;41.574;23.734;2023-05-11T08:39:33;95571.84;;;20.92;52.48
9521;BME280;4798;41.574;23.734;2023-05-11T08:42:14;95531.16;;;19.59;53.61
9521;BME280;4798;41.574;23.734;2023-05-11T08:44:45;95510.31;;;20.53;53.28
9521;BME280;4798;41.574;23.734;2023-05-11T08:47:15;95562.38;;;20.86;53.56
9521;BME280;4798;41.574;23.734;2023-05-11T08:49:50;95553.44;;;20.94;54.86
9521;BME280;4798;41.574;23.734;2023-05-11T08:52:19;95554.69;;;21.38;55.78
9521;BME280;4798;41.574;23.734;2023-05-11T08:54:48;95550.06;;;20.56;55.69
9521;BME280;4798;41.574;23.734;2023-05-11T08:57:16;95545.69;;;20.43;53.54
9521;BME280;4798;41.574;23.734;2023-05-11T08:59:47;95542.22;;;20.92;54.22
9521;BME280;4798;41.574;23.734;2023-05-11T09:02:17;95535.34;;;21.81;51.86
9521;BME280;4798;41.574;23.734;2023-05-11T09:04:46;95530.59;;;22.23;48.82
9521;BME280;4798;41.574;23.734;2023-05-11T09:07:15;95528.81;;;21.58;48.42
9521;BME280;4798;41.574;23.734;2023-05-11T09:09:44;95515.31;;;22.39;49.43
9521;BME280;4798;41.574;23.734;2023-05-11T09:12:14;95518.47;;;23.60;47.04
9521;BME280;4798;41.574;23.734;2023-05-11T09:14:43;95471.34;;;23.33;47.59
9521;BME280;4798;41.574;23.734;2023-05-11T09:17:14;95510.91;;;23.97;45.18
9521;BME280;4798;41.574;23.734;2023-05-11T09:20:04;95520.16;;;23.65;48.06
9521;BME280;4798;41.574;23.734;2023-05-11T09:22:39;95503.44;;;23.47;45.11
9521;BME280;4798;41.574;23.734;2023-05-11T09:25:10;95514.03;;;23.83;45.20
9521;BME280;4798;41.574;23.734;2023-05-11T09:27:42;95455.00;;;22.87;44.41
9521;BME280;4798;41.574;23.734;2023-05-11T09:30:12;95507.28;;;23.62;46.07
9521;BME280;4798;41.574;23.734;2023-05-11T09:32:51;95517.34;;;24.55;43.62
9521;BME280;4798;41.574;23.734;2023-05-11T09:35:24;95513.16;;;24.92;47.30
9521;BME280;4798;41.574;23.734;2023-05-11T09:38:04;95492.47;;;23.87;43.10
9521;BME280;4798;41.574;23.734;2023-05-11T09:40:35;95495.31;;;22.92;44.19
9521;BME280;4798;41.574;23.734;2023-05-11T09:43:16;95501.00;;;21.90;45.44
9521;BME280;4798;41.574;23.734;2023-05-11T09:45:45;95496.59;;;22.46;48.49
9521;BME280;4798;41.574;23.734;2023-05-11T09:48:25;95494.28;;;22.08;48.06
9521;BME280;4798;41.574;23.734;2023-05-11T09:51:04;95488.00;;;20.73;48.34
9521;BME280;4798;41.574;23.734;2023-05-11T09:53:34;95477.69;;;19.96;49.54
9521;BME280;4798;41.574;23.734;2023-05-11T09:56:04;95499.94;;;20.43;49.95
9521;BME280;4798;41.574;23.734;2023-05-11T09:58:51;95487.00;;;20.57;50.67
9521;BME280;4798;41.574;23.734;2023-05-11T10:01:28;95491.69;;;20.39;49.66
9521;BME280;4798;41.574;23.734;2023-05-11T10:04:01;95494.97;;;20.74;49.78
9521;BME280;4798;41.574;23.734;2023-05-11T10:06:49;95488.44;;;20.96;49.79
9521;BME280;4798;41.574;23.734;2023-05-11T10:09:22;95483.47;;;21.96;48.60
9521;BME280;4798;41.574;23.734;2023-05-11T10:11:52;95480.34;;;21.49;49.78
9521;BME280;4798;41.574;23.734;2023-05-11T10:14:23;95472.66;;;21.27;48.96
9521;BME280;4798;41.574;23.734;2023-05-11T10:16:55;95473.69;;;22.16;48.88
9521;BME280;4798;41.574;23.734;2023-05-11T10:19:26;95480.88;;;22.11;47.30
9521;BME280;4798;41.574;23.734;2023-05-11T10:21:55;95412.13;;;21.36;47.85
9521;BME280;4798;41.574;23.734;2023-05-11T10:24:24;95461.50;;;20.75;49.26
9521;BME280;4798;41.574;23.734;2023-05-11T10:26:55;95479.78;;;20.49;50.49
9521;BME280;4798;41.574;23.734;2023-05-11T10:29:24;95480.09;;;20.47;50.19
9521;BME280;4798;41.574;23.734;2023-05-11T10:31:54;95480.69;;;21.15;48.55
9521;BME280;4798;41.574;23.734;2023-05-11T10:34:27;95417.44;;;20.79;49.88
9521;BME280;4798;41.574;23.734;2023-05-11T10:36:59;95464.16;;;21.49;50.92
9521;BME280;4798;41.574;23.734;2023-05-11T10:39:28;95463.88;;;20.97;48.40
9521;BME280;4798;41.574;23.734;2023-05-11T10:42:06;95455.00;;;20.97;49.09
9521;BME280;4798;41.574;23.734;2023-05-11T10:45:12;95459.94;;;21.96;48.65
9521;BME280;4798;41.574;23.734;2023-05-11T10:48:08;95452.03;;;21.55;46.98
9521;BME280;4798;41.574;23.734;2023-05-11T10:50:54;95443.09;;;21.87;48.63
9521;BME280;4798;41.574;23.734;2023-05-11T10:53:43;95440.81;;;22.38;46.55
9521;BME280;4798;41.574;23.734;2023-05-11T10:56:25;95433.97;;;23.23;44.72
9521;BME280;4798;41.574;23.734;2023-05-11T10:59:20;95431.94;;;23.48;43.43
9521;BME280;4798;41.574;23.734;2023-05-11T11:01:52;95432.41;;;23.50;45.10
9521;BME280;4798;41.574;23.734;2023-05-11T11:04:24;95424.72;;;23.52;45.98
9521;BME280;4798;41.574;23.734;2023-05-11T11:07:09;95419.28;;;23.83;45.66
9521;BME280;4798;41.574;23.734;2023-05-11T11:09:50;95356.88;;;23.76;44.75
9521;BME280;4798;41.574;23.734;2023-05-11T11:12:20;95416.72;;;24.22;42.51
9521;BME280;4798;41.574;23.734;2023-05-11T11:14:56;95408.91;;;24.90;42.19
9521;BME280;4798;41.574;23.734;2023-05-11T11:17:27;95416.56;;;24.30;43.92
9521;BME280;4798;41.574;23.734;2023-05-11T11:19:57;95412.84;;;23.57;41.92
9521;BME280;4798;41.574;23.734;2023-05-11T11:22:44;95402.06;;;24.07;43.24
9521;BME280;4798;41.574;23.734;2023-05-11T11:25:15;95399.28;;;24.92;40.96
9521;BME280;4798;41.574;23.734;2023-05-11T11:28:03;95386.63;;;25.19;43.22
9521;BME280;4798;41.574;23.734;2023-05-11T11:30:32;95383.75;;;24.54;40.49
9521;BME280;4798;41.574;23.734;2023-05-11T11:33:30;95392.13;;;24.46;41.94
9521;BME280;4798;41.574;23.734;2023-05-11T11:36:00;95389.44;;;25.26;39.59
9521;BME280;4798;41.574;23.734;2023-05-11T11:38:30;95395.94;;;24.80;40.29
9521;BME280;4798;41.574;23.734;2023-05-11T11:41:00;95378.53;;;24.27;40.03
9521;BME280;4798;41.574;23.734;2023-05-11T11:43:42;95388.41;;;23.69;41.56
9521;BME280;4798;41.574;23.734;2023-05-11T11:46:24;95388.06;;;23.70;42.68
9521;BME280;4798;41.574;23.734;2023-05-11T11:49:05;95381.59;;;23.59;41.34
9521;BME280;4798;41.574;23.734;2023-05-11T11:51:34;95336.22;;;24.03;42.02
9521;BME280;4798;41.574;23.734;2023-05-11T11:54:07;95353.03;;;23.93;42.50
9521;BME280;4798;41.574;23.734;2023-05-11T11:56:43;95373.41;;;22.97;43.21
9521;BME280;4798;41.574;23.734;2023-05-11T11:59:12;95373.78;;;22.16;44.53
9521;BME280;4798;41.574;23.734;2023-05-11T12:01:43;95374.59;;;22.04;44.32
9521;BME280;4798;41.574;23.734;2023-05-11T12:07:18;95365.09;;;22.62;43.80
9521;BME280;4798;41.574;23.734;2023-05-11T12:09:48;95364.22;;;22.58;43.76
9521;BME280;4798;41.574;23.734;2023-05-11T12:12:19;95336.97;;;22.63;44.46
9521;BME280;4798;41.574;23.734;2023-05-11T12:14:48;95358.63;;;22.51;44.56
9521;BME280;4798;41.574;23.734;2023-05-11T12:17:23;95358.00;;;23.13;45.09
9521;BME280;4798;41.574;23.734;2023-05-11T12:19:52;95355.22;;;22.26;46.46
9521;BME280;4798;41.574;23.734;2023-05-11T12:22:24;95349.78;;;22.38;45.23
9521;BME280;4798;41.574;23.734;2023-05-11T12:24:57;95351.34;;;21.75;45.30
9521;BME280;4798;41.574;23.734;2023-05-11T12:27:26;95353.81;;;21.32;46.08
9521;BME280;4798;41.574;23.734;2023-05-11T12:29:54;95357.06;;;21.49;45.57
9521;BME280;4798;41.574;23.734;2023-05-11T12:32:25;95347.13;;;22.54;45.83
9521;BME280;4798;41.574;23.734;2023-05-11T12:34:59;95342.44;;;23.10;43.03
9521;BME280;4798;41.574;23.734;2023-05-11T12:37:28;95347.03;;;22.78;44.07
9521;BME280;4798;41.574;23.734;2023-05-11T12:39:58;95337.78;;;23.22;44.37
9521;BME280;4798;41.574;23.734;2023-05-11T12:42:26;95337.91;;;22.98;45.14
9521;BME280;4798;41.574;23.734;2023-05-11T12:44:55;95337.31;;;21.58;45.00
9521;BME280;4798;41.574;23.734;2023-05-11T12:47:23;95336.16;;;21.46;45.84
9521;BME280;4798;41.574;23.734;2023-05-11T12:49:52;95338.41;;;21.32;46.40
9521;BME280;4798;41.574;23.734;2023-05-11T12:52:22;95338.94;;;21.14;46.04
9521;BME280;4798;41.574;23.734;2023-05-11T12:54:50;95329.97;;;21.10;45.76
9521;BME280;4798;41.574;23.734;2023-05-11T12:57:26;95294.66;;;21.03;45.98
9521;BME280;4798;41.574;23.734;2023-05-11T13:00:09;95310.28;;;21.82;46.07
9521;BME280;4798;41.574;23.734;2023-05-11T13:02:48;95296.91;;;22.53;44.61
9521;BME280;4798;41.574;23.734;2023-05-11T13:05:22;95306.63;;;22.26;44.41
9521;BME280;4798;41.574;23.734;2023-05-11T13:07:56;95308.28;;;21.18;45.63
9521;BME280;4798;41.574;23.734;2023-05-11T13:10:24;95301.09;;;21.10;46.36
9521;BME280;4798;41.574;23.734;2023-05-11T13:12:55;95307.41;;;21.38;46.23
9521;BME280;4798;41.574;23.734;2023-05-11T13:15:24;95307.19;;;21.31;47.08
9521;BME280;4798;41.574;23.734;2023-05-11T13:17:55;95262.47;;;21.30;46.63
9521;BME280;4798;41.574;23.734;2023-05-11T13:20:26;95303.44;;;21.72;46.50
9521;BME280;4798;41.574;23.734;2023-05-11T13:23:03;95304.66;;;22.27;44.93
9521;BME280;4798;41.574;23.734;2023-05-11T13:25:32;95301.47;;;22.21;44.89
9521;BME280;4798;41.574;23.734;2023-05-11T13:28:03;95298.09;;;22.40;43.62
9521;BME280;4798;41.574;23.734;2023-05-11T13:30:31;95294.63;;;22.67;43.88